PAM4707 CYHZ-CYQX
Flight info
| Callsign | PAM4707 |
|---|---|
| Flight time | 1h 1m |
| Altitude | 43000 |
| Route | IGTAS DCT NOTOP DCT SILRO |
| Aircraft | A388/J-SADE2E3FGHIJ3J4J5M1RWXY/LB1D1 |
Departure
| Time | 2026-04-20 17:15 |
|---|---|
| Airport | Halifax / Stanfield International Airport (CYHZ) |
Arrival
| Time | 2026-04-20 18:17 |
|---|---|
| Airport | Gander International Airport (CYQX) |
| Time | Latitude | Longitude | Altitude | Speed | Heading |
|---|---|---|---|---|---|
| 2026-04-20 16:31 | 44.88864 | -63.51402 | 457 ft | 0 kts | 239° |
| 2026-04-20 17:04 | 44.88878 | -63.51371 | 453 ft | 4 kts | 226° |
| 2026-04-20 17:05 | 44.88899 | -63.51348 | 454 ft | 4 kts | 201° |
| 2026-04-20 17:05 | 44.88924 | -63.51343 | 455 ft | 4 kts | 163° |
| 2026-04-20 17:05 | 44.88937 | -63.51351 | 454 ft | 1 kts | 142° |
| 2026-04-20 17:09 | 44.88935 | -63.51349 | 457 ft | 2 kts | 142° |
| 2026-04-20 17:09 | 44.88916 | -63.51334 | 456 ft | 5 kts | 155° |
| 2026-04-20 17:10 | 44.88861 | -63.51307 | 457 ft | 11 kts | 163° |
| 2026-04-20 17:10 | 44.88762 | -63.51276 | 457 ft | 18 kts | 170° |
| 2026-04-20 17:10 | 44.88614 | -63.51241 | 457 ft | 25 kts | 171° |
| 2026-04-20 17:10 | 44.88457 | -63.51206 | 457 ft | 21 kts | 181° |
| 2026-04-20 17:11 | 44.88333 | -63.51308 | 457 ft | 22 kts | 217° |
| 2026-04-20 17:11 | 44.88200 | -63.51443 | 457 ft | 25 kts | 213° |
| 2026-04-20 17:11 | 44.88053 | -63.51587 | 457 ft | 27 kts | 216° |
| 2026-04-20 17:11 | 44.87899 | -63.51746 | 457 ft | 28 kts | 216° |
| 2026-04-20 17:12 | 44.87732 | -63.51900 | 457 ft | 29 kts | 214° |
| 2026-04-20 17:12 | 44.87562 | -63.52068 | 457 ft | 30 kts | 215° |
| 2026-04-20 17:12 | 44.87391 | -63.52239 | 457 ft | 26 kts | 216° |
| 2026-04-20 17:12 | 44.87236 | -63.52395 | 457 ft | 28 kts | 216° |
| 2026-04-20 17:13 | 44.87073 | -63.52555 | 457 ft | 29 kts | 213° |
| 2026-04-20 17:13 | 44.86906 | -63.52717 | 457 ft | 25 kts | 215° |
| 2026-04-20 17:13 | 44.86784 | -63.52888 | 457 ft | 22 kts | 229° |
| 2026-04-20 17:13 | 44.86756 | -63.52930 | 457 ft | 3 kts | 213° |
| 2026-04-20 17:14 | 44.86726 | -63.52942 | 460 ft | 6 kts | 170° |
| 2026-04-20 17:14 | 44.86677 | -63.52906 | 457 ft | 11 kts | 138° |
| 2026-04-20 17:14 | 44.86618 | -63.52793 | 455 ft | 17 kts | 113° |
| 2026-04-20 17:14 | 44.86653 | -63.52644 | 453 ft | 17 kts | 43° |
| 2026-04-20 17:15 | 44.86948 | -63.52347 | 455 ft | 97 kts | 36° |
| 2026-04-20 17:15 | 44.87695 | -63.51620 | 456 ft | 157 kts | 36° |
| 2026-04-20 17:15 | 44.88644 | -63.50604 | 667 ft | 174 kts | 35° |
| 2026-04-20 17:15 | 44.89506 | -63.49435 | 1396 ft | 176 kts | 45° |
| 2026-04-20 17:16 | 44.90489 | -63.48312 | 1866 ft | 192 kts | 38° |
| 2026-04-20 17:16 | 44.91594 | -63.47210 | 2401 ft | 201 kts | 38° |
| 2026-04-20 17:16 | 44.92778 | -63.46009 | 2678 ft | 219 kts | 38° |
| 2026-04-20 17:16 | 44.94065 | -63.44710 | 2983 ft | 236 kts | 38° |
| 2026-04-20 17:17 | 44.95478 | -63.43281 | 3226 ft | 264 kts | 38° |
| 2026-04-20 17:17 | 44.97021 | -63.41723 | 3806 ft | 284 kts | 37° |
| 2026-04-20 17:17 | 44.98652 | -63.40079 | 4844 ft | 288 kts | 38° |
| 2026-04-20 17:17 | 45.00103 | -63.38131 | 5813 ft | 292 kts | 59° |
| 2026-04-20 17:18 | 45.00872 | -63.35501 | 6758 ft | 291 kts | 84° |
| 2026-04-20 17:18 | 45.01106 | -63.32649 | 7707 ft | 293 kts | 90° |
| 2026-04-20 17:18 | 45.01314 | -63.29758 | 8698 ft | 300 kts | 88° |
| 2026-04-20 17:18 | 45.01657 | -63.26818 | 9678 ft | 307 kts | 84° |
| 2026-04-20 17:19 | 45.02124 | -63.23833 | 10472 ft | 319 kts | 82° |
| 2026-04-20 17:19 | 45.02688 | -63.20664 | 10830 ft | 344 kts | 80° |
| 2026-04-20 17:19 | 45.03325 | -63.17288 | 11194 ft | 365 kts | 79° |
| 2026-04-20 17:19 | 45.04001 | -63.13795 | 11943 ft | 371 kts | 79° |
| 2026-04-20 17:20 | 45.04685 | -63.10257 | 12726 ft | 377 kts | 79° |
| 2026-04-20 17:20 | 45.05375 | -63.06656 | 13504 ft | 382 kts | 79° |
| 2026-04-20 17:20 | 45.06069 | -63.02998 | 14255 ft | 387 kts | 79° |
| 2026-04-20 17:20 | 45.06767 | -62.99303 | 14999 ft | 391 kts | 79° |
| 2026-04-20 17:21 | 45.07543 | -62.95590 | 15694 ft | 398 kts | 73° |
| 2026-04-20 17:21 | 45.08719 | -62.92007 | 16434 ft | 406 kts | 64° |
| 2026-04-20 17:21 | 45.10156 | -62.88556 | 17111 ft | 411 kts | 63° |
| 2026-04-20 17:21 | 45.11607 | -62.85033 | 17803 ft | 415 kts | 63° |
| 2026-04-20 17:22 | 45.13058 | -62.81474 | 18466 ft | 419 kts | 63° |
| 2026-04-20 17:22 | 45.14517 | -62.77885 | 19087 ft | 422 kts | 63° |
| 2026-04-20 17:22 | 45.15984 | -62.74272 | 19713 ft | 425 kts | 63° |
| 2026-04-20 17:22 | 45.17461 | -62.70629 | 20314 ft | 428 kts | 63° |
| 2026-04-20 17:23 | 45.18948 | -62.66957 | 20913 ft | 430 kts | 64° |
| 2026-04-20 17:23 | 45.20441 | -62.63270 | 21519 ft | 433 kts | 64° |
| 2026-04-20 17:23 | 45.21944 | -62.59551 | 22107 ft | 436 kts | 64° |
| 2026-04-20 17:23 | 45.23456 | -62.55805 | 22688 ft | 439 kts | 64° |
| 2026-04-20 17:24 | 45.24977 | -62.52032 | 23286 ft | 442 kts | 64° |
| 2026-04-20 17:24 | 45.26506 | -62.48232 | 23825 ft | 445 kts | 64° |
| 2026-04-20 17:24 | 45.28046 | -62.44400 | 24290 ft | 448 kts | 64° |
| 2026-04-20 17:24 | 45.29593 | -62.40546 | 24744 ft | 452 kts | 64° |
| 2026-04-20 17:25 | 45.31153 | -62.36656 | 25248 ft | 454 kts | 64° |
| 2026-04-20 17:25 | 45.32719 | -62.32744 | 25731 ft | 458 kts | 64° |
| 2026-04-20 17:25 | 45.34302 | -62.28783 | 26248 ft | 462 kts | 64° |
| 2026-04-20 17:25 | 45.35890 | -62.24805 | 26754 ft | 466 kts | 64° |
| 2026-04-20 17:26 | 45.37495 | -62.20776 | 27308 ft | 469 kts | 64° |
| 2026-04-20 17:26 | 45.39112 | -62.16715 | 27842 ft | 473 kts | 64° |
| 2026-04-20 17:26 | 45.40740 | -62.12618 | 28389 ft | 478 kts | 64° |
| 2026-04-20 17:26 | 45.42381 | -62.08482 | 28927 ft | 482 kts | 64° |
| 2026-04-20 17:27 | 45.44034 | -62.04310 | 29482 ft | 487 kts | 64° |
| 2026-04-20 17:27 | 45.45837 | -62.00196 | 30014 ft | 494 kts | 56° |
| 2026-04-20 17:27 | 45.47867 | -61.96231 | 30485 ft | 497 kts | 59° |
| 2026-04-20 17:27 | 45.49784 | -61.92110 | 31001 ft | 500 kts | 60° |
| 2026-04-20 17:28 | 45.51693 | -61.87943 | 31558 ft | 502 kts | 60° |
| 2026-04-20 17:28 | 45.53620 | -61.83787 | 32068 ft | 505 kts | 60° |
| 2026-04-20 17:28 | 45.55581 | -61.79615 | 32562 ft | 509 kts | 59° |
| 2026-04-20 17:28 | 45.57570 | -61.75415 | 33046 ft | 512 kts | 59° |
| 2026-04-20 17:29 | 45.59571 | -61.71199 | 33574 ft | 514 kts | 59° |
| 2026-04-20 17:29 | 45.61580 | -61.66963 | 34083 ft | 517 kts | 59° |
| 2026-04-20 17:29 | 45.63602 | -61.62694 | 34478 ft | 521 kts | 59° |
| 2026-04-20 17:29 | 45.65635 | -61.58392 | 34892 ft | 524 kts | 59° |
| 2026-04-20 17:30 | 45.67670 | -61.54082 | 35486 ft | 523 kts | 59° |
| 2026-04-20 17:30 | 45.69698 | -61.49781 | 36086 ft | 521 kts | 59° |
| 2026-04-20 17:30 | 45.71723 | -61.45479 | 36652 ft | 521 kts | 60° |
| 2026-04-20 17:30 | 45.73749 | -61.41165 | 37201 ft | 521 kts | 60° |
| 2026-04-20 17:31 | 45.75763 | -61.36870 | 37804 ft | 520 kts | 60° |
| 2026-04-20 17:31 | 45.77777 | -61.32569 | 38395 ft | 519 kts | 60° |
| 2026-04-20 17:31 | 45.79782 | -61.28282 | 38874 ft | 519 kts | 60° |
| 2026-04-20 17:31 | 45.81794 | -61.23970 | 39260 ft | 520 kts | 59° |
| 2026-04-20 17:32 | 45.83802 | -61.19662 | 39698 ft | 519 kts | 59° |
| 2026-04-20 17:32 | 45.85804 | -61.15359 | 40102 ft | 520 kts | 59° |
| 2026-04-20 17:32 | 45.87810 | -61.11044 | 40483 ft | 520 kts | 59° |
| 2026-04-20 17:32 | 45.89822 | -61.06708 | 40845 ft | 521 kts | 59° |
| 2026-04-20 17:33 | 45.91830 | -61.02373 | 41261 ft | 521 kts | 59° |
| 2026-04-20 17:33 | 45.93179 | -60.99457 | 41531 ft | 521 kts | 59° |
| 2026-04-20 17:33 | 45.95189 | -60.95109 | 41925 ft | 522 kts | 59° |
| 2026-04-20 17:33 | 45.97198 | -60.90754 | 42185 ft | 525 kts | 59° |
| 2026-04-20 17:34 | 45.99225 | -60.86352 | 42443 ft | 528 kts | 58° |
| 2026-04-20 17:34 | 46.01252 | -60.81946 | 42718 ft | 531 kts | 58° |
| 2026-04-20 17:34 | 46.03290 | -60.77507 | 42995 ft | 533 kts | 58° |
| 2026-04-20 17:35 | 46.07402 | -60.68535 | 42989 ft | 532 kts | 58° |
| 2026-04-20 17:35 | 46.11475 | -60.59619 | 43000 ft | 534 kts | 58° |
| 2026-04-20 17:36 | 46.15554 | -60.50657 | 42983 ft | 534 kts | 58° |
| 2026-04-20 17:36 | 46.19626 | -60.41683 | 42983 ft | 535 kts | 58° |
| 2026-04-20 17:37 | 46.23697 | -60.32682 | 42970 ft | 535 kts | 59° |
| 2026-04-20 17:37 | 46.27756 | -60.23681 | 42970 ft | 534 kts | 59° |
| 2026-04-20 17:38 | 46.31804 | -60.14672 | 42966 ft | 534 kts | 59° |
| 2026-04-20 17:38 | 46.35818 | -60.05711 | 42975 ft | 534 kts | 59° |
| 2026-04-20 17:39 | 46.39851 | -59.96680 | 42971 ft | 533 kts | 59° |
| 2026-04-20 17:39 | 46.43897 | -59.87590 | 42985 ft | 533 kts | 59° |
| 2026-04-20 17:40 | 46.47881 | -59.78609 | 42979 ft | 533 kts | 59° |
| 2026-04-20 17:40 | 46.51903 | -59.69514 | 42988 ft | 532 kts | 59° |
| 2026-04-20 17:41 | 46.55902 | -59.60440 | 42979 ft | 533 kts | 59° |
| 2026-04-20 17:41 | 46.59861 | -59.51427 | 42986 ft | 532 kts | 59° |
| 2026-04-20 17:42 | 46.63837 | -59.42347 | 42980 ft | 533 kts | 59° |
| 2026-04-20 17:42 | 46.67839 | -59.33176 | 42994 ft | 533 kts | 59° |
| 2026-04-20 17:43 | 46.71780 | -59.24118 | 42988 ft | 533 kts | 59° |
| 2026-04-20 17:43 | 46.75740 | -59.14983 | 42991 ft | 533 kts | 59° |
| 2026-04-20 17:44 | 46.79698 | -59.05826 | 42990 ft | 533 kts | 59° |
| 2026-04-20 17:44 | 46.83642 | -58.96668 | 43001 ft | 533 kts | 60° |
| 2026-04-20 17:45 | 46.87587 | -58.87479 | 42991 ft | 533 kts | 60° |
| 2026-04-20 17:45 | 46.91517 | -58.78293 | 43074 ft | 533 kts | 60° |
| 2026-04-20 17:45 | 46.93470 | -58.73679 | 42920 ft | 536 kts | 60° |
| 2026-04-20 17:46 | 46.95447 | -58.69012 | 42970 ft | 542 kts | 60° |
| 2026-04-20 17:46 | 46.99456 | -58.59664 | 42981 ft | 541 kts | 58° |
| 2026-04-20 17:47 | 47.04295 | -58.51177 | 42976 ft | 543 kts | 52° |
| 2026-04-20 17:47 | 47.09101 | -58.42646 | 42968 ft | 542 kts | 52° |
| 2026-04-20 17:48 | 47.13929 | -58.34150 | 42961 ft | 542 kts | 52° |
| 2026-04-20 17:48 | 47.18772 | -58.25676 | 42961 ft | 541 kts | 52° |
| 2026-04-20 17:49 | 47.23607 | -58.17200 | 42961 ft | 541 kts | 52° |
| 2026-04-20 17:49 | 47.28431 | -58.08714 | 42952 ft | 540 kts | 52° |
| 2026-04-20 17:50 | 47.33243 | -58.00221 | 42941 ft | 539 kts | 52° |
| 2026-04-20 17:50 | 47.38030 | -57.91745 | 42938 ft | 538 kts | 52° |
| 2026-04-20 17:51 | 47.42803 | -57.83268 | 42923 ft | 537 kts | 52° |
| 2026-04-20 17:51 | 47.47572 | -57.74773 | 42773 ft | 537 kts | 52° |
| 2026-04-20 17:51 | 47.49946 | -57.70535 | 42495 ft | 533 kts | 52° |
| 2026-04-20 17:52 | 47.52300 | -57.66325 | 42224 ft | 529 kts | 52° |
| 2026-04-20 17:52 | 47.54637 | -57.62140 | 41953 ft | 526 kts | 52° |
| 2026-04-20 17:52 | 47.56968 | -57.57959 | 41687 ft | 524 kts | 53° |
| 2026-04-20 17:52 | 47.59277 | -57.53810 | 41426 ft | 523 kts | 53° |
| 2026-04-20 17:53 | 47.61589 | -57.49649 | 41176 ft | 522 kts | 53° |
| 2026-04-20 17:53 | 47.63900 | -57.45482 | 40917 ft | 522 kts | 53° |
| 2026-04-20 17:53 | 47.66204 | -57.41324 | 40675 ft | 522 kts | 53° |
| 2026-04-20 17:53 | 47.68505 | -57.37163 | 40417 ft | 522 kts | 53° |
| 2026-04-20 17:54 | 47.70810 | -57.32990 | 40165 ft | 522 kts | 53° |
| 2026-04-20 17:54 | 47.73106 | -57.28824 | 39925 ft | 522 kts | 53° |
| 2026-04-20 17:54 | 47.75411 | -57.24639 | 39681 ft | 522 kts | 54° |
| 2026-04-20 17:54 | 47.77707 | -57.20462 | 39434 ft | 522 kts | 54° |
| 2026-04-20 17:55 | 47.80002 | -57.16281 | 39207 ft | 522 kts | 54° |
| 2026-04-20 17:55 | 47.82293 | -57.12102 | 38879 ft | 520 kts | 54° |
| 2026-04-20 17:55 | 47.84577 | -57.07928 | 38168 ft | 521 kts | 54° |
| 2026-04-20 17:55 | 47.86869 | -57.03730 | 37192 ft | 524 kts | 54° |
| 2026-04-20 17:56 | 47.89177 | -56.99495 | 36049 ft | 530 kts | 54° |
| 2026-04-20 17:56 | 47.91505 | -56.95216 | 35128 ft | 532 kts | 54° |
| 2026-04-20 17:56 | 47.93832 | -56.90940 | 34330 ft | 529 kts | 54° |
| 2026-04-20 17:56 | 47.96149 | -56.86674 | 33544 ft | 527 kts | 54° |
| 2026-04-20 17:57 | 47.98438 | -56.82457 | 32980 ft | 519 kts | 54° |
| 2026-04-20 17:57 | 48.00699 | -56.78282 | 32357 ft | 514 kts | 54° |
| 2026-04-20 17:57 | 48.02930 | -56.74153 | 31723 ft | 509 kts | 54° |
| 2026-04-20 17:57 | 48.05140 | -56.70057 | 31094 ft | 504 kts | 54° |
| 2026-04-20 17:58 | 48.07329 | -56.65993 | 30463 ft | 500 kts | 53° |
| 2026-04-20 17:58 | 48.09496 | -56.61963 | 29818 ft | 496 kts | 53° |
| 2026-04-20 17:58 | 48.11653 | -56.57948 | 29148 ft | 491 kts | 53° |
| 2026-04-20 17:58 | 48.13779 | -56.53985 | 28532 ft | 486 kts | 53° |
| 2026-04-20 17:59 | 48.15883 | -56.50058 | 27898 ft | 483 kts | 54° |
| 2026-04-20 17:59 | 48.17974 | -56.46148 | 27259 ft | 479 kts | 54° |
| 2026-04-20 17:59 | 48.20047 | -56.42265 | 26661 ft | 475 kts | 54° |
| 2026-04-20 17:59 | 48.22110 | -56.38396 | 26035 ft | 472 kts | 54° |
| 2026-04-20 18:00 | 48.24080 | -56.34697 | 25428 ft | 468 kts | 54° |
| 2026-04-20 18:00 | 48.26155 | -56.30795 | 24798 ft | 463 kts | 54° |
| 2026-04-20 18:00 | 48.28153 | -56.27033 | 24185 ft | 459 kts | 54° |
| 2026-04-20 18:00 | 48.30132 | -56.23301 | 23564 ft | 455 kts | 54° |
| 2026-04-20 18:01 | 48.32093 | -56.19597 | 22870 ft | 451 kts | 54° |
| 2026-04-20 18:01 | 48.34029 | -56.15935 | 22273 ft | 444 kts | 54° |
| 2026-04-20 18:01 | 48.35941 | -56.12314 | 21653 ft | 439 kts | 54° |
| 2026-04-20 18:01 | 48.37823 | -56.08744 | 21042 ft | 433 kts | 54° |
| 2026-04-20 18:02 | 48.39685 | -56.05208 | 20443 ft | 429 kts | 54° |
| 2026-04-20 18:02 | 48.41529 | -56.01702 | 19838 ft | 425 kts | 54° |
| 2026-04-20 18:02 | 48.43351 | -55.98233 | 19236 ft | 421 kts | 54° |
| 2026-04-20 18:02 | 48.45160 | -55.94784 | 18639 ft | 417 kts | 53° |
| 2026-04-20 18:03 | 48.46951 | -55.91366 | 18021 ft | 414 kts | 53° |
| 2026-04-20 18:03 | 48.48727 | -55.87971 | 17395 ft | 410 kts | 53° |
| 2026-04-20 18:03 | 48.50483 | -55.84612 | 16808 ft | 405 kts | 53° |
| 2026-04-20 18:03 | 48.52220 | -55.81285 | 16207 ft | 401 kts | 53° |
| 2026-04-20 18:04 | 48.53936 | -55.77995 | 15632 ft | 397 kts | 53° |
| 2026-04-20 18:04 | 48.55630 | -55.74740 | 15057 ft | 394 kts | 53° |
| 2026-04-20 18:04 | 48.57317 | -55.71497 | 14462 ft | 391 kts | 53° |
| 2026-04-20 18:04 | 48.58990 | -55.68276 | 13884 ft | 389 kts | 53° |
| 2026-04-20 18:05 | 48.62302 | -55.61891 | 12716 ft | 382 kts | 53° |
| 2026-04-20 18:05 | 48.63929 | -55.58748 | 12200 ft | 378 kts | 53° |
| 2026-04-20 18:05 | 48.65560 | -55.55592 | 11777 ft | 384 kts | 54° |
| 2026-04-20 18:06 | 48.67208 | -55.52399 | 11203 ft | 386 kts | 54° |
| 2026-04-20 18:06 | 48.68854 | -55.49210 | 10662 ft | 381 kts | 54° |
| 2026-04-20 18:06 | 48.70455 | -55.46105 | 10490 ft | 365 kts | 54° |
| 2026-04-20 18:06 | 48.71985 | -55.43139 | 10322 ft | 350 kts | 54° |
| 2026-04-20 18:07 | 48.73453 | -55.40284 | 10202 ft | 337 kts | 54° |
| 2026-04-20 18:07 | 48.74878 | -55.37509 | 9831 ft | 333 kts | 54° |
| 2026-04-20 18:07 | 48.76282 | -55.34767 | 9494 ft | 328 kts | 54° |
| 2026-04-20 18:07 | 48.77671 | -55.32054 | 9123 ft | 324 kts | 54° |
| 2026-04-20 18:08 | 48.79044 | -55.29371 | 8752 ft | 320 kts | 54° |
| 2026-04-20 18:08 | 48.80421 | -55.26676 | 8125 ft | 326 kts | 54° |
| 2026-04-20 18:08 | 48.81359 | -55.24839 | 7787 ft | 326 kts | 54° |
| 2026-04-20 18:08 | 48.83025 | -55.21576 | 7264 ft | 325 kts | 54° |
| 2026-04-20 18:09 | 48.84405 | -55.18870 | 6833 ft | 323 kts | 54° |
| 2026-04-20 18:09 | 48.85776 | -55.16179 | 6427 ft | 320 kts | 54° |
| 2026-04-20 18:09 | 48.87136 | -55.13506 | 5972 ft | 320 kts | 54° |
| 2026-04-20 18:09 | 48.88489 | -55.10844 | 5531 ft | 318 kts | 55° |
| 2026-04-20 18:10 | 48.89839 | -55.08190 | 5152 ft | 315 kts | 55° |
| 2026-04-20 18:10 | 48.91174 | -55.05558 | 4746 ft | 313 kts | 55° |
| 2026-04-20 18:10 | 48.92500 | -55.02944 | 4333 ft | 311 kts | 55° |
| 2026-04-20 18:10 | 48.93818 | -55.00341 | 3894 ft | 310 kts | 55° |
| 2026-04-20 18:11 | 48.95130 | -54.97750 | 3491 ft | 308 kts | 55° |
| 2026-04-20 18:11 | 48.96432 | -54.95179 | 3127 ft | 304 kts | 55° |
| 2026-04-20 18:11 | 48.97703 | -54.92664 | 2723 ft | 296 kts | 55° |
| 2026-04-20 18:11 | 48.98923 | -54.90261 | 2590 ft | 276 kts | 56° |
| 2026-04-20 18:12 | 49.00056 | -54.88032 | 2595 ft | 257 kts | 57° |
| 2026-04-20 18:12 | 49.00868 | -54.85768 | 2611 ft | 231 kts | 83° |
| 2026-04-20 18:12 | 49.00856 | -54.83576 | 2583 ft | 182 kts | 118° |
| 2026-04-20 18:12 | 49.00403 | -54.81786 | 2613 ft | 186 kts | 124° |
| 2026-04-20 18:13 | 49.00064 | -54.80575 | 2593 ft | 188 kts | 126° |
| 2026-04-20 18:13 | 48.99522 | -54.78736 | 2613 ft | 193 kts | 124° |
| 2026-04-20 18:13 | 48.99066 | -54.76799 | 2608 ft | 196 kts | 119° |
| 2026-04-20 18:13 | 48.98670 | -54.74810 | 2607 ft | 196 kts | 119° |
| 2026-04-20 18:14 | 48.98253 | -54.72848 | 2483 ft | 195 kts | 118° |
| 2026-04-20 18:14 | 48.97855 | -54.70885 | 2198 ft | 192 kts | 120° |
| 2026-04-20 18:14 | 48.97454 | -54.68975 | 1935 ft | 189 kts | 117° |
| 2026-04-20 18:14 | 48.97079 | -54.67153 | 1707 ft | 166 kts | 118° |
| 2026-04-20 18:15 | 48.96761 | -54.65596 | 1497 ft | 147 kts | 117° |
| 2026-04-20 18:15 | 48.96471 | -54.64176 | 1292 ft | 139 kts | 116° |
| 2026-04-20 18:15 | 48.96164 | -54.62784 | 1060 ft | 140 kts | 116° |
| 2026-04-20 18:15 | 48.95891 | -54.61360 | 854 ft | 139 kts | 113° |
| 2026-04-20 18:16 | 48.95608 | -54.59949 | 678 ft | 138 kts | 113° |
| 2026-04-20 18:16 | 48.95327 | -54.58558 | 481 ft | 137 kts | 114° |
| 2026-04-20 18:16 | 48.95057 | -54.57382 | 469 ft | 92 kts | 107° |
| 2026-04-20 18:16 | 48.94901 | -54.56663 | 465 ft | 59 kts | 106° |
| 2026-04-20 18:17 | 48.94813 | -54.56248 | 462 ft | 26 kts | 109° |
| 2026-04-20 18:17 | 48.94802 | -54.56199 | 463 ft | 4 kts | 109° |
| 2026-04-20 18:17 | 48.94788 | -54.56134 | 463 ft | 8 kts | 108° |
| 2026-04-20 18:17 | 48.94758 | -54.56051 | 462 ft | 9 kts | 139° |
| 2026-04-20 18:18 | 48.94706 | -54.56019 | 463 ft | 7 kts | 176° |
| 2026-04-20 18:18 | 48.94670 | -54.56025 | 464 ft | 5 kts | 190° |
| 2026-04-20 18:18 | 48.94638 | -54.56033 | 466 ft | 5 kts | 190° |
| 2026-04-20 18:18 | 48.94602 | -54.56043 | 466 ft | 6 kts | 190° |
| 2026-04-20 18:19 | 48.94597 | -54.56045 | 466 ft | 0 kts | 190° |
| 2026-04-20 18:20 | 48.94596 | -54.56045 | 466 ft | 0 kts | 192° |
| 2026-04-20 18:20 | 48.94592 | -54.56046 | 466 ft | 1 kts | 208° |
| 2026-04-20 18:20 | 48.94589 | -54.56050 | 466 ft | 1 kts | 226° |
| 2026-04-20 18:20 | 48.94575 | -54.56079 | 466 ft | 5 kts | 243° |
| 2026-04-20 18:21 | 48.94560 | -54.56142 | 464 ft | 7 kts | 252° |
| 2026-04-20 18:21 | 48.94540 | -54.56224 | 467 ft | 9 kts | 246° |
| 2026-04-20 18:21 | 48.94510 | -54.56323 | 467 ft | 11 kts | 243° |
| 2026-04-20 18:21 | 48.94472 | -54.56427 | 467 ft | 11 kts | 240° |
| 2026-04-20 18:22 | 48.94436 | -54.56527 | 467 ft | 11 kts | 241° |
| 2026-04-20 18:22 | 48.94398 | -54.56636 | 464 ft | 12 kts | 243° |
| 2026-04-20 18:22 | 48.94362 | -54.56748 | 467 ft | 10 kts | 262° |
| 2026-04-20 18:22 | 48.94384 | -54.56841 | 465 ft | 10 kts | 312° |
| 2026-04-20 18:23 | 48.94458 | -54.56917 | 465 ft | 15 kts | 332° |
| 2026-04-20 18:23 | 48.94516 | -54.56963 | 468 ft | 0 kts | 332° |
| 2026-04-20 18:24 | 48.94518 | -54.56964 | 470 ft | 2 kts | 333° |
| 2026-04-20 18:24 | 48.94533 | -54.56981 | 468 ft | 3 kts | 300° |
| 2026-04-20 18:24 | 48.94542 | -54.57034 | 465 ft | 7 kts | 268° |
| 2026-04-20 18:25 | 48.94529 | -54.57113 | 468 ft | 9 kts | 247° |
| 2026-04-20 18:25 | 48.94512 | -54.57202 | 468 ft | 9 kts | 267° |
| 2026-04-20 18:25 | 48.94515 | -54.57285 | 468 ft | 0 kts | 282° |
| 2026-04-20 18:25 | 48.94516 | -54.57296 | 468 ft | 0 kts | 263° |
| 2026-04-20 18:26 | 48.94515 | -54.57299 | 468 ft | 0 kts | 263° |
| 2026-04-20 18:27 | 48.94515 | -54.57304 | 468 ft | 1 kts | 267° |
| 2026-04-20 18:27 | 48.94516 | -54.57313 | 468 ft | 1 kts | 296° |
| 2026-04-20 18:27 | 48.94519 | -54.57319 | 466 ft | 1 kts | 317° |
| 2026-04-20 18:27 | 48.94522 | -54.57323 | 466 ft | 1 kts | 336° |
| 2026-04-20 18:28 | 48.94525 | -54.57325 | 466 ft | 1 kts | 353° |
| 2026-04-20 18:28 | 48.94528 | -54.57325 | 466 ft | 0 kts | 5° |
| 2026-04-20 18:28 | 48.94535 | -54.57323 | 466 ft | 3 kts | 17° |
| 2026-04-20 18:28 | 48.94568 | -54.57316 | 467 ft | 5 kts | 356° |
| 2026-04-20 18:29 | 48.94591 | -54.57320 | 467 ft | 1 kts | 348° |
| 2026-04-20 18:29 | 48.94593 | -54.57321 | 467 ft | 0 kts | 347° |